首页
METAR-TAF:

METAR-TAF

机场 :

青森機場

青森, 日本

纬度: 40-44N, 经度: 140-42E, 海拔: 199米

当前天气观测

该预报发布于31分钟前的09:00 UTC
风速3节,风向西,在西南西北之间变化
温度 5°C
湿度 87%
气压 1018 hPa
能见度10公里或以上
少量云层高于3000英尺
多云层高于4500英尺
小阵雨

METAR: RJSA 140900Z 28003KT 230V320 9999 -SHRA FEW030 BKN045 05/03 Q1018

时间: 18:31 (09:31 UTC)

预报

该预报发布于4小时和25分钟前的05:06 UTC
预报有效从14日的 06点(UTC)到 15日的 12点(UTC)
风速5节,风向西
能见度10公里或以上
少量云层高于2000英尺
多云层高于4000英尺
短暂存在
从 14日的 18点(UTC)到 14日的 21点(UTC)
能見度: 4000
小阵雨, 轻雾

TAF: RJSA 140506Z 1406/1512 28005KT 9999 FEW020 BKN040 TEMPO 1418/1421 4000 -SHRA BR

超过4000个机场的气象观测和天气预报(METAR&TAF报告)。

可查询的气象台以黄色和红色小点在地图上表示。

将鼠标移到小点上方,可查看气象台名称。

然后点击查看天气观测和预报。

如需切换地图:点击带黑十字的绿色按钮放大地图;点击带横线的绿色按钮缩小地图;或者点击绿色箭头查看邻近地区的地图。


METAR-TAF: